createdAt,value
2019-03-24T00:00:42.490Z,17.47
2019-03-24T00:03:12.202Z,18.33
2019-03-24T00:05:41.935Z,20.37
2019-03-24T00:08:11.626Z,19.23
2019-03-24T00:10:41.332Z,18.93
2019-03-24T00:13:11.174Z,19.20
2019-03-24T00:15:41.265Z,18.00
2019-03-24T00:18:10.986Z,19.87
2019-03-24T00:20:40.892Z,18.37
2019-03-24T00:23:10.601Z,20.50
2019-03-24T00:25:40.431Z,20.73
2019-03-24T00:28:10.178Z,21.17
2019-03-24T00:30:39.561Z,19.60
2019-03-24T00:33:08.969Z,19.30
2019-03-24T00:35:38.374Z,16.73
2019-03-24T00:38:07.817Z,19.30
2019-03-24T00:40:37.278Z,18.67
2019-03-24T00:43:07.261Z,18.87
2019-03-24T00:45:37.376Z,17.73
2019-03-24T00:48:07.294Z,20.97
2019-03-24T00:50:36.665Z,21.10
2019-03-24T00:53:06.511Z,17.80
2019-03-24T00:55:35.885Z,18.90
2019-03-24T00:58:05.777Z,20.17
2019-03-24T01:00:47.542Z,21.33
2019-03-24T01:03:17.458Z,25.50
2019-03-24T01:05:47.560Z,24.67
2019-03-24T01:08:17.394Z,24.07
2019-03-24T01:10:49.742Z,24.30
2019-03-24T01:13:19.206Z,24.27
2019-03-24T01:15:48.898Z,24.40
2019-03-24T01:18:18.772Z,27.20
2019-03-24T01:20:48.300Z,24.97
2019-03-24T01:23:17.997Z,24.43
2019-03-24T01:25:47.798Z,25.13
2019-03-24T01:28:17.606Z,25.60
2019-03-24T01:30:49.906Z,23.00
2019-03-24T01:33:19.290Z,22.20
2019-03-24T01:35:48.734Z,21.30
2019-03-24T01:38:18.166Z,23.00
2019-03-24T01:40:47.648Z,22.47
2019-03-24T01:43:17.338Z,22.07
2019-03-24T01:45:46.723Z,22.90
2019-03-24T01:48:16.415Z,24.03
2019-03-24T01:50:45.858Z,24.07
2019-03-24T01:53:15.313Z,23.10
2019-03-24T01:55:44.684Z,24.10
2019-03-24T01:58:14.552Z,23.30
2019-03-24T02:00:44.254Z,23.23
2019-03-24T02:03:13.715Z,22.17
2019-03-24T02:05:43.091Z,21.17
2019-03-24T02:08:12.467Z,23.40
2019-03-24T02:10:41.925Z,21.90
2019-03-24T02:13:11.392Z,22.20
2019-03-24T02:15:40.893Z,23.87
2019-03-24T02:18:10.687Z,23.70
2019-03-24T02:20:40.404Z,22.97
2019-03-24T02:23:09.874Z,23.80
2019-03-24T02:25:39.319Z,23.07
2019-03-24T02:28:08.779Z,22.10
2019-03-24T02:30:38.296Z,22.77
2019-03-24T02:33:07.686Z,22.90
2019-03-24T02:35:37.130Z,23.10
2019-03-24T02:38:06.847Z,22.80
2019-03-24T02:40:36.234Z,22.73
2019-03-24T02:43:05.767Z,22.57
2019-03-24T02:45:35.291Z,23.20
2019-03-24T02:48:04.687Z,21.73
2019-03-24T02:50:34.070Z,22.37
2019-03-24T02:53:03.454Z,24.70
2019-03-24T02:55:33.152Z,24.80
2019-03-24T02:58:02.622Z,25.00
2019-03-24T03:00:32.060Z,22.93
2019-03-24T03:03:01.522Z,24.80
2019-03-24T03:05:30.977Z,24.27
2019-03-24T03:08:00.522Z,25.40
2019-03-24T03:10:30.038Z,24.10
2019-03-24T03:12:59.451Z,26.80
2019-03-24T03:15:28.826Z,26.53
2019-03-24T03:17:58.224Z,25.90
2019-03-24T03:20:27.595Z,26.40
2019-03-24T03:22:57.338Z,25.67
2019-03-24T03:25:26.714Z,27.70
2019-03-24T03:27:56.091Z,25.93
2019-03-24T03:30:25.478Z,27.23
2019-03-24T03:32:55.135Z,26.73
2019-03-24T03:35:24.527Z,28.43
2019-03-24T03:37:54.151Z,28.50
2019-03-24T03:40:23.541Z,31.93
2019-03-24T03:42:53.263Z,29.67
2019-03-24T03:45:29.412Z,29.27
2019-03-24T03:47:58.908Z,30.43
2019-03-24T03:50:28.435Z,29.20
2019-03-24T03:52:57.879Z,30.63
2019-03-24T03:55:27.671Z,27.90
2019-03-24T03:57:57.113Z,26.73
2019-03-24T04:00:32.857Z,26.67
2019-03-24T04:03:02.361Z,26.37
2019-03-24T04:05:32.240Z,27.33
2019-03-24T04:08:01.886Z,26.10
2019-03-24T04:10:31.424Z,27.90
2019-03-24T04:13:01.014Z,28.10
2019-03-24T04:15:30.477Z,27.47
2019-03-24T04:17:59.858Z,29.13
2019-03-24T04:20:29.563Z,28.80
2019-03-24T04:22:59.006Z,30.60
2019-03-24T04:25:28.541Z,27.50
2019-03-24T04:27:57.915Z,28.87
2019-03-24T04:30:27.702Z,30.03
2019-03-24T04:32:57.073Z,28.57
2019-03-24T04:35:26.525Z,28.17
2019-03-24T04:37:55.974Z,28.93
2019-03-24T04:40:25.723Z,29.00
2019-03-24T04:42:55.170Z,28.47
2019-03-24T04:45:24.557Z,28.23
2019-03-24T04:47:54.261Z,26.73
2019-03-24T04:50:23.798Z,27.43
2019-03-24T04:52:53.441Z,26.37
2019-03-24T04:55:22.834Z,29.00
2019-03-24T04:57:52.285Z,29.97
2019-03-24T05:00:34.788Z,30.63
2019-03-24T05:03:04.222Z,27.90
2019-03-24T05:05:34.052Z,28.57
2019-03-24T05:08:04.167Z,29.10
2019-03-24T05:10:33.625Z,28.60
2019-03-24T05:13:03.314Z,30.30
2019-03-24T05:15:32.703Z,30.30
2019-03-24T05:18:02.089Z,28.77
2019-03-24T05:20:31.541Z,31.03
2019-03-24T05:23:00.914Z,31.57
2019-03-24T05:25:30.302Z,32.17
2019-03-24T05:27:59.682Z,30.63
2019-03-24T05:30:29.073Z,30.77
2019-03-24T05:32:58.844Z,32.87
2019-03-24T05:35:28.660Z,32.60
2019-03-24T05:37:58.104Z,32.50
2019-03-24T05:40:27.489Z,31.53
2019-03-24T05:42:56.869Z,32.83
2019-03-24T05:45:26.266Z,31.63
2019-03-24T05:47:55.709Z,30.87
2019-03-24T05:50:25.102Z,30.47
2019-03-24T05:52:54.477Z,29.47
2019-03-24T05:55:23.933Z,30.90
2019-03-24T05:57:53.337Z,30.37
2019-03-24T06:00:23.150Z,28.50
2019-03-24T06:02:52.523Z,32.13
2019-03-24T06:05:22.172Z,28.03
2019-03-24T06:07:51.629Z,28.13
2019-03-24T06:10:21.322Z,29.10
2019-03-24T06:12:50.773Z,27.80
2019-03-24T06:15:20.239Z,28.03
2019-03-24T06:17:49.948Z,28.83
2019-03-24T06:20:19.754Z,27.83
2019-03-24T06:22:49.472Z,29.57
2019-03-24T06:25:18.946Z,29.23
2019-03-24T06:27:48.578Z,28.70
2019-03-24T06:30:18.708Z,31.90
2019-03-24T06:32:48.405Z,30.43
2019-03-24T06:35:17.884Z,28.80
2019-03-24T06:37:47.627Z,28.97
2019-03-24T06:40:17.084Z,30.00
2019-03-24T06:42:46.479Z,28.30
2019-03-24T06:45:16.006Z,29.23
2019-03-24T06:47:45.402Z,29.60
2019-03-24T06:50:15.254Z,27.37
2019-03-24T06:52:44.788Z,29.43
2019-03-24T06:55:14.311Z,31.67
2019-03-24T06:57:43.713Z,29.60
2019-03-24T07:00:13.738Z,28.03
2019-03-24T07:02:43.209Z,28.80
2019-03-24T07:05:13.426Z,27.50
2019-03-24T07:07:43.126Z,28.70
2019-03-24T07:10:12.983Z,29.80
2019-03-24T07:12:42.397Z,26.50
2019-03-24T07:15:12.665Z,28.40
2019-03-24T07:17:42.477Z,29.33
2019-03-24T07:20:12.009Z,33.07
2019-03-24T07:22:41.639Z,35.90
2019-03-24T07:25:11.506Z,38.43
2019-03-24T07:27:41.219Z,38.13
2019-03-24T07:30:11.509Z,38.30
2019-03-24T07:32:40.984Z,36.20
2019-03-24T07:35:10.509Z,34.43
2019-03-24T07:37:40.374Z,37.27
2019-03-24T07:40:10.618Z,39.43
2019-03-24T07:42:40.074Z,42.17
2019-03-24T07:45:09.965Z,43.50
2019-03-24T07:47:39.431Z,44.87
2019-03-24T07:50:11.279Z,43.30
2019-03-24T07:52:40.791Z,46.50
2019-03-24T07:55:10.610Z,46.30
2019-03-24T07:57:40.958Z,46.60
2019-03-24T08:00:11.440Z,48.40
2019-03-24T08:02:50.963Z,46.07
2019-03-24T08:05:16.639Z,46.00
2019-03-24T08:07:46.415Z,45.70
2019-03-24T08:10:16.432Z,47.97
2019-03-24T08:12:46.002Z,49.80
2019-03-24T08:15:17.290Z,45.87
2019-03-24T08:17:47.510Z,46.67
2019-03-24T08:20:17.026Z,45.33
2019-03-24T08:22:47.447Z,46.17
2019-03-24T08:25:20.323Z,48.07
2019-03-24T08:27:49.747Z,47.27
2019-03-24T08:30:31.242Z,47.23
2019-03-24T08:33:01.238Z,44.97
2019-03-24T08:35:30.716Z,42.73
2019-03-24T08:38:00.583Z,41.53
2019-03-24T08:40:30.137Z,41.43
2019-03-24T08:42:59.549Z,42.87
2019-03-24T08:45:30.280Z,42.20
2019-03-24T08:48:00.516Z,42.10
2019-03-24T08:50:30.070Z,42.80
2019-03-24T08:52:59.833Z,43.23
2019-03-24T08:55:29.645Z,42.67
2019-03-24T08:57:59.117Z,43.23
2019-03-24T09:00:30.925Z,43.40
2019-03-24T09:03:00.089Z,45.97
2019-03-24T09:05:29.460Z,45.27
2019-03-24T09:07:58.958Z,44.13
2019-03-24T09:10:28.447Z,40.93
2019-03-24T09:12:57.858Z,44.37
2019-03-24T09:15:27.637Z,45.80
2019-03-24T09:17:57.718Z,46.30
2019-03-24T09:20:27.109Z,44.10
2019-03-24T09:22:56.509Z,44.30
2019-03-24T09:25:25.912Z,43.93
2019-03-24T09:27:55.754Z,44.70
2019-03-24T09:30:32.965Z,45.87
2019-03-24T09:33:02.492Z,47.10
2019-03-24T09:35:32.091Z,44.17
2019-03-24T09:38:02.038Z,44.67
2019-03-24T09:40:32.806Z,44.67
2019-03-24T09:43:03.126Z,44.43
2019-03-24T09:45:32.886Z,46.57
2019-03-24T09:48:02.986Z,50.40
2019-03-24T09:50:33.116Z,45.40
2019-03-24T09:53:02.645Z,49.50
2019-03-24T09:55:32.110Z,46.30
2019-03-24T09:58:01.829Z,45.80
2019-03-24T10:00:31.757Z,49.60
2019-03-24T10:03:01.314Z,46.37
2019-03-24T10:05:30.887Z,51.97
2019-03-24T10:08:00.771Z,50.30
2019-03-24T10:10:30.582Z,49.23
2019-03-24T10:13:00.061Z,48.93
2019-03-24T10:15:29.558Z,44.57
2019-03-24T10:17:59.336Z,46.90
2019-03-24T10:20:28.804Z,48.90
2019-03-24T10:22:58.524Z,48.97
2019-03-24T10:25:27.925Z,47.33
2019-03-24T10:27:57.542Z,48.83
2019-03-24T10:30:26.961Z,47.70
2019-03-24T10:32:56.741Z,47.63
2019-03-24T10:35:26.154Z,46.27
2019-03-24T10:37:56.369Z,46.83
2019-03-24T10:40:28.965Z,44.53
2019-03-24T10:42:57.339Z,45.50
2019-03-24T10:45:26.789Z,45.17
2019-03-24T10:47:56.360Z,46.37
2019-03-24T10:50:25.878Z,46.10
2019-03-24T10:52:55.354Z,45.10
2019-03-24T10:55:24.875Z,47.10
2019-03-24T10:57:54.491Z,45.70
2019-03-24T11:00:41.042Z,47.17
2019-03-24T11:03:10.595Z,46.80
2019-03-24T11:05:40.701Z,43.00
2019-03-24T11:08:10.856Z,43.17
2019-03-24T11:10:40.779Z,41.43
2019-03-24T11:13:10.294Z,45.67
2019-03-24T11:15:40.117Z,42.23
2019-03-24T11:18:09.658Z,43.77
2019-03-24T11:20:39.154Z,42.13
2019-03-24T11:23:08.627Z,43.40
2019-03-24T11:25:38.586Z,42.27
2019-03-24T11:28:08.502Z,41.27
2019-03-24T11:30:38.295Z,41.07
2019-03-24T11:33:08.159Z,40.30
2019-03-24T11:35:37.570Z,40.50
2019-03-24T11:38:07.304Z,41.37
2019-03-24T11:40:37.148Z,36.20
2019-03-24T11:43:06.664Z,39.10
2019-03-24T11:45:36.604Z,39.07
2019-03-24T11:48:06.137Z,38.27
2019-03-24T11:50:36.283Z,37.40
2019-03-24T11:53:06.189Z,38.33
2019-03-24T11:55:35.750Z,40.20
2019-03-24T11:58:06.328Z,36.87
2019-03-24T12:00:38.114Z,32.90
2019-03-24T12:03:08.137Z,34.37
2019-03-24T12:05:37.694Z,34.47
2019-03-24T12:08:07.316Z,35.17
2019-03-24T12:10:36.895Z,34.30
2019-03-24T12:13:06.387Z,37.47
2019-03-24T12:15:35.990Z,37.53
2019-03-24T12:18:05.703Z,34.30
2019-03-24T12:20:35.282Z,34.20
2019-03-24T12:23:05.194Z,33.83
2019-03-24T12:25:35.008Z,33.77
2019-03-24T12:28:04.546Z,35.40
2019-03-24T12:30:34.432Z,32.43
2019-03-24T12:33:05.274Z,32.77
2019-03-24T12:35:34.827Z,35.63
2019-03-24T12:38:04.406Z,33.70
2019-03-24T12:40:34.086Z,33.27
2019-03-24T12:43:03.958Z,34.27
2019-03-24T12:45:33.788Z,33.87
2019-03-24T12:48:03.353Z,31.73
2019-03-24T12:50:33.245Z,30.20
2019-03-24T12:53:02.800Z,30.67
2019-03-24T12:55:32.283Z,29.90
2019-03-24T12:58:01.781Z,31.57
2019-03-24T13:00:36.441Z,30.57
2019-03-24T13:03:07.037Z,29.40
2019-03-24T13:05:36.585Z,27.97
2019-03-24T13:08:16.782Z,31.30
2019-03-24T13:10:46.870Z,30.40
2019-03-24T13:13:16.710Z,32.27
2019-03-24T13:15:46.738Z,30.63
2019-03-24T13:18:16.557Z,28.53
2019-03-24T13:20:46.674Z,30.20
2019-03-24T13:23:16.470Z,28.67
2019-03-24T13:25:46.047Z,29.60
2019-03-24T13:28:16.206Z,30.67
2019-03-24T13:30:46.049Z,28.30
2019-03-24T13:33:15.823Z,27.77
2019-03-24T13:35:45.402Z,28.30
2019-03-24T13:38:15.243Z,28.63
2019-03-24T13:40:45.063Z,26.37
2019-03-24T13:43:14.770Z,29.33
2019-03-24T13:45:44.321Z,30.77
2019-03-24T13:48:13.897Z,26.83
2019-03-24T13:50:43.455Z,26.17
2019-03-24T13:53:12.878Z,26.53
2019-03-24T13:55:42.352Z,28.93
2019-03-24T13:58:12.270Z,27.37
2019-03-24T14:00:42.006Z,27.50
2019-03-24T14:03:11.433Z,27.10
2019-03-24T14:05:40.983Z,25.10
2019-03-24T14:08:10.811Z,25.60
2019-03-24T14:10:40.574Z,25.60
2019-03-24T14:13:10.065Z,24.20
2019-03-24T14:15:39.871Z,23.80
2019-03-24T14:18:09.381Z,24.20
2019-03-24T14:20:43.568Z,23.90
2019-03-24T14:23:09.930Z,22.00
2019-03-24T14:25:39.413Z,24.10
2019-03-24T14:28:08.834Z,22.20
2019-03-24T14:30:46.166Z,21.37
2019-03-24T14:33:16.446Z,23.57
2019-03-24T14:35:46.506Z,23.63
2019-03-24T14:38:16.043Z,20.23
2019-03-24T14:40:45.509Z,22.43
2019-03-24T14:43:15.190Z,24.30
2019-03-24T14:45:45.107Z,23.53
2019-03-24T14:48:15.020Z,22.30
2019-03-24T14:50:53.873Z,21.80
2019-03-24T14:53:16.058Z,21.77
2019-03-24T14:55:45.608Z,23.90
2019-03-24T14:58:15.214Z,23.43
2019-03-24T15:00:45.103Z,23.53
2019-03-24T15:03:14.670Z,23.07
2019-03-24T15:05:44.521Z,24.00
2019-03-24T15:08:14.178Z,24.00
2019-03-24T15:10:43.742Z,22.73
2019-03-24T15:13:13.375Z,25.07
2019-03-24T15:15:43.262Z,28.27
2019-03-24T15:18:13.075Z,26.20
2019-03-24T15:20:43.302Z,27.67
2019-03-24T15:23:13.006Z,31.10
2019-03-24T15:25:42.566Z,28.47
2019-03-24T15:28:12.038Z,27.67
2019-03-24T15:30:41.449Z,31.87
2019-03-24T15:33:10.935Z,29.17
2019-03-24T15:35:40.737Z,30.23
2019-03-24T15:38:10.921Z,32.70
2019-03-24T15:40:40.399Z,33.60
2019-03-24T15:43:09.886Z,29.60
2019-03-24T15:45:39.266Z,28.40
2019-03-24T15:48:08.821Z,30.10
2019-03-24T15:50:38.593Z,32.47
2019-03-24T15:53:08.195Z,31.03
2019-03-24T15:55:37.742Z,29.47
2019-03-24T15:58:07.522Z,32.40
2019-03-24T16:00:47.406Z,35.27
2019-03-24T16:03:17.590Z,35.70
2019-03-24T16:05:47.127Z,36.13
2019-03-24T16:08:16.698Z,36.30
2019-03-24T16:10:46.256Z,33.27
2019-03-24T16:13:15.801Z,35.03
2019-03-24T16:15:45.632Z,36.10
2019-03-24T16:18:15.114Z,31.50
2019-03-24T16:20:44.575Z,34.37
2019-03-24T16:23:14.772Z,35.57
2019-03-24T16:25:44.165Z,33.17
2019-03-24T16:28:13.633Z,32.70
2019-03-24T16:30:43.109Z,34.33
2019-03-24T16:33:12.509Z,35.40
2019-03-24T16:35:42.287Z,30.63
2019-03-24T16:38:11.845Z,31.93
2019-03-24T16:40:41.642Z,34.10
2019-03-24T16:43:11.256Z,31.23
2019-03-24T16:45:40.730Z,34.53
2019-03-24T16:48:10.177Z,33.17
2019-03-24T16:50:39.645Z,33.07
2019-03-24T16:53:09.449Z,30.57
2019-03-24T16:55:39.021Z,35.03
2019-03-24T16:58:08.485Z,34.00
2019-03-24T17:00:38.045Z,34.53
2019-03-24T17:03:07.567Z,33.10
2019-03-24T17:05:37.038Z,33.73
2019-03-24T17:08:06.591Z,34.37
2019-03-24T17:10:36.335Z,31.47
2019-03-24T17:13:06.094Z,31.97
2019-03-24T17:15:35.573Z,34.43
2019-03-24T17:18:05.663Z,30.83
2019-03-24T17:20:35.531Z,32.37
2019-03-24T17:23:05.210Z,31.93
2019-03-24T17:25:35.102Z,35.63
2019-03-24T17:28:04.610Z,36.17
2019-03-24T17:30:34.278Z,37.30
2019-03-24T17:33:03.942Z,34.50
2019-03-24T17:35:33.422Z,32.13
2019-03-24T17:38:02.882Z,32.50
2019-03-24T17:40:38.593Z,32.40
2019-03-24T17:43:04.154Z,31.40
2019-03-24T17:45:34.078Z,31.40
2019-03-24T17:48:03.886Z,32.67
2019-03-24T17:50:33.804Z,33.70
2019-03-24T17:53:03.271Z,32.23
2019-03-24T17:55:32.928Z,30.40
2019-03-24T17:58:02.335Z,31.53
2019-03-24T18:00:43.315Z,30.83
2019-03-24T18:03:12.848Z,28.83
2019-03-24T18:05:42.809Z,30.63
2019-03-24T18:08:12.627Z,33.77
2019-03-24T18:10:42.107Z,30.10
2019-03-24T18:13:11.481Z,32.40
2019-03-24T18:15:41.041Z,28.93
2019-03-24T18:18:10.539Z,30.57
2019-03-24T18:20:40.091Z,30.87
2019-03-24T18:23:09.600Z,30.03
2019-03-24T18:25:39.366Z,31.07
2019-03-24T18:28:08.829Z,30.57
2019-03-24T18:30:38.587Z,28.93
2019-03-24T18:33:08.133Z,33.17
2019-03-24T18:35:37.627Z,29.17
2019-03-24T18:38:07.221Z,31.20
2019-03-24T18:40:36.772Z,31.20
2019-03-24T18:43:06.620Z,32.30
2019-03-24T18:45:36.090Z,30.03
2019-03-24T18:48:06.422Z,27.90
2019-03-24T18:50:35.928Z,28.97
2019-03-24T18:53:05.598Z,28.70
2019-03-24T18:55:34.997Z,29.70
2019-03-24T18:58:05.093Z,28.50
2019-03-24T19:00:35.007Z,30.80
2019-03-24T19:03:04.545Z,31.37
2019-03-24T19:05:35.252Z,31.67
2019-03-24T19:08:05.462Z,32.90
2019-03-24T19:10:34.879Z,30.37
2019-03-24T19:13:04.602Z,29.33
2019-03-24T19:15:34.108Z,29.20
2019-03-24T19:18:03.604Z,30.30
2019-03-24T19:20:33.069Z,29.00
2019-03-24T19:23:02.546Z,29.40
2019-03-24T19:25:32.145Z,31.90
2019-03-24T19:28:01.920Z,31.70
2019-03-24T19:30:36.887Z,29.37
2019-03-24T19:33:06.750Z,32.10
2019-03-24T19:35:36.371Z,31.53
2019-03-24T19:38:06.597Z,32.40
2019-03-24T19:40:36.719Z,33.10
2019-03-24T19:43:06.370Z,32.43
2019-03-24T19:45:36.250Z,32.33
2019-03-24T19:48:05.950Z,33.17
2019-03-24T19:50:35.763Z,33.43
2019-03-24T19:53:05.326Z,32.43
2019-03-24T19:55:35.183Z,33.67
2019-03-24T19:58:04.812Z,33.73
2019-03-24T20:00:34.511Z,31.80
2019-03-24T20:03:04.198Z,33.03
2019-03-24T20:05:34.074Z,28.30
2019-03-24T20:08:03.646Z,28.90
2019-03-24T20:10:33.680Z,30.17
2019-03-24T20:13:03.161Z,30.87
2019-03-24T20:15:33.113Z,28.80
2019-03-24T20:18:02.693Z,29.70
2019-03-24T20:20:32.250Z,30.57
2019-03-24T20:23:01.822Z,29.93
2019-03-24T20:25:31.380Z,29.00
2019-03-24T20:28:01.007Z,28.67
2019-03-24T20:30:30.459Z,29.20
2019-03-24T20:33:00.254Z,31.37
2019-03-24T20:35:30.350Z,29.17
2019-03-24T20:37:59.771Z,30.40
2019-03-24T20:40:29.230Z,30.40
2019-03-24T20:42:58.969Z,28.57
2019-03-24T20:45:28.437Z,29.97
2019-03-24T20:47:58.549Z,30.90
2019-03-24T20:50:28.115Z,30.83
2019-03-24T20:53:05.497Z,30.13
2019-03-24T20:55:29.263Z,31.90
2019-03-24T20:57:59.282Z,29.80
2019-03-24T21:00:37.125Z,28.30
2019-03-24T21:03:08.210Z,28.27
2019-03-24T21:05:38.733Z,26.17
2019-03-24T21:08:09.115Z,25.77
2019-03-24T21:10:38.794Z,27.47
2019-03-24T21:13:08.529Z,27.97
2019-03-24T21:15:39.150Z,28.07
2019-03-24T21:18:09.402Z,28.87
2019-03-24T21:20:39.409Z,28.70
2019-03-24T21:23:10.046Z,27.63
2019-03-24T21:25:43.612Z,29.40
2019-03-24T21:28:13.762Z,27.07
2019-03-24T21:30:43.313Z,29.73
2019-03-24T21:33:13.042Z,29.37
2019-03-24T21:35:43.559Z,29.53
2019-03-24T21:38:14.096Z,28.87
2019-03-24T21:40:43.618Z,28.90
2019-03-24T21:43:13.227Z,28.47
2019-03-24T21:45:43.143Z,30.20
2019-03-24T21:48:12.583Z,29.40
2019-03-24T21:50:42.994Z,29.73
2019-03-24T21:53:13.140Z,27.10
2019-03-24T21:55:42.986Z,28.50
2019-03-24T21:58:13.035Z,29.70
2019-03-24T22:00:44.294Z,29.00
2019-03-24T22:03:14.001Z,30.43
2019-03-24T22:05:46.714Z,30.17
2019-03-24T22:08:16.555Z,29.67
2019-03-24T22:10:46.365Z,31.37
2019-03-24T22:13:16.363Z,31.37
2019-03-24T22:15:46.228Z,30.57
2019-03-24T22:18:16.010Z,31.20
2019-03-24T22:20:49.139Z,33.23
2019-03-24T22:23:17.167Z,30.23
2019-03-24T22:25:46.842Z,31.83
2019-03-24T22:28:17.058Z,31.20
2019-03-24T22:30:46.545Z,31.50
2019-03-24T22:33:16.353Z,31.13
2019-03-24T22:35:47.205Z,31.90
2019-03-24T22:38:17.270Z,31.90
2019-03-24T22:40:48.735Z,30.47
2019-03-24T22:43:18.293Z,29.63
2019-03-24T22:45:48.838Z,31.17
2019-03-24T22:48:19.326Z,31.90
2019-03-24T22:50:52.173Z,31.07
2019-03-24T22:53:22.498Z,31.67
2019-03-24T22:55:51.874Z,33.13
2019-03-24T22:58:22.155Z,32.97
2019-03-24T23:00:55.155Z,32.97
2019-03-24T23:03:25.582Z,31.13
2019-03-24T23:05:55.921Z,34.00
2019-03-24T23:08:26.143Z,32.37
2019-03-24T23:10:55.900Z,32.80
2019-03-24T23:13:25.448Z,32.37
2019-03-24T23:15:55.702Z,31.80
2019-03-24T23:18:25.667Z,32.80
2019-03-24T23:20:55.089Z,32.37
2019-03-24T23:23:24.639Z,33.97
2019-03-24T23:25:54.103Z,33.60
2019-03-24T23:28:23.658Z,31.73
2019-03-24T23:30:53.481Z,32.93
2019-03-24T23:33:23.026Z,33.70
2019-03-24T23:35:52.595Z,32.53
2019-03-24T23:38:21.982Z,32.90
2019-03-24T23:40:51.459Z,33.83
2019-03-24T23:43:21.318Z,33.73
2019-03-24T23:45:50.789Z,33.37
2019-03-24T23:48:20.536Z,33.63
2019-03-24T23:50:50.446Z,32.83
2019-03-24T23:53:19.857Z,33.53
2019-03-24T23:55:49.292Z,33.47
2019-03-24T23:58:18.962Z,32.33
